Pagrindinis puslapis
METAR-TAF:

METAR-TAF

Oro uostai :

Fernando de Noronija, Pernambuco, Brazilija

platuma: 03-51S, ilguma: 032-25W, Aukštis: 56 m

Dabartinis oras

Ataskaita buvo paskelbta 27 minutes, ne 22:00 UTC
Vėjas 9 kt iš Pietryčių
Temperatūra 26°C
Drėgmė 79%
Slėgis 1011 hPa
Matomumas 10 km arba daugiau
Mažai debesys ne aukštis 2200 ft

METAR: SBFN 122200Z 13009KT 9999 FEW022 26/22 Q1011

Laikas: 20:27 (22:27 UTC)

Prognozė

Ataskaita buvo paskelbta 6 valandos ir 27 minutes, ne 16:00 UTC
Prognozė galioja nuo 12 metu 18 UTC su 13 metu 06 UTC
Vėjas 10 kt iš Pietryčių
Matomumas 10 km arba daugiau
Išsisklaidę debesys ne aukštis 2000 ft
Tapsmas
nuo 12 metu 22 UTC su 12 metu 24 UTC
Vėjas 8 kt iš Rytų/Pietryčių

TAF: SBFN 121600Z 1218/1306 14010KT 9999 SCT020 TX29/1218Z TN26/1306Z BECMG 1222/1224 11008KT RMK PEH

Orai ataskaitas ir orų prognozės (METAR, TAF).

turimą stotys yra geltonos ir raudonos taškus žemėlapyje.

Perkelti pele per norėdami pamatyti stoties vardą.

Tada spustelėkite, norėdami matyti oro stebėjimo ir prognozės.

Norėdami pakeisti žemėlapį: spustelėkite ant žalios mygtukų su juodo kryžiaus žemyn,; žalią mygtuką su brūkšneliu, jei norite nutolinti; arba žalių rodyklių gretimoms žemėlapius.


METAR-TAF: